Time;durP1;ratioP1;P1;durP2;ratioP2;P2;SDS_P1;SDS_P2;PMS_P1;PMS_P2;Temp;Humidity;BMP_temperature;BMP_pressure;BME280_temperature;BME280_humidity;BME280_pressure;Samples;Min_cycle;Max_cycle;Signal;HPM_P1;HPM_P2
2023/07/28 00:00:42;;;;;;;7.30;2.00;;;;;;;-128.00;-1.00;-1.00;106582;1253;1012911;-71
2023/07/28 00:03:33;;;;;;;6.90;2.40;;;;;;;-128.00;-1.00;-1.00;106594;1253;1013040;-70
2023/07/28 00:06:19;;;;;;;7.20;2.60;;;;;;;-128.00;-1.00;-1.00;106566;1253;1009719;-72
2023/07/28 00:09:06;;;;;;;8.00;2.30;;;;;;;-128.00;-1.00;-1.00;106640;1254;1011277;-70
2023/07/28 00:11:53;;;;;;;7.30;2.40;;;;;;;-128.00;-1.00;-1.00;106554;1254;1012534;-73
2023/07/28 00:14:40;;;;;;;8.20;2.70;;;;;;;-128.00;-1.00;-1.00;106817;1258;1012217;-68
2023/07/28 00:17:26;;;;;;;6.50;1.70;;;;;;;-128.00;-1.00;-1.00;106396;1256;1012821;-71
2023/07/28 00:20:13;;;;;;;7.30;2.30;;;;;;;-128.00;-1.00;-1.00;106424;1256;1009666;-70
2023/07/28 00:23:00;;;;;;;8.00;2.20;;;;;;;-128.00;-1.00;-1.00;106382;1256;1010973;-68
2023/07/28 00:25:46;;;;;;;8.20;2.50;;;;;;;-128.00;-1.00;-1.00;106442;1256;1014376;-69
2023/07/28 00:28:34;;;;;;;7.50;2.30;;;;;;;-128.00;-1.00;-1.00;106476;1256;1012922;-70
2023/07/28 00:31:23;;;;;;;7.90;2.50;;;;;;;-128.00;-1.00;-1.00;106525;1256;1012130;-71
2023/07/28 00:34:10;;;;;;;8.10;2.50;;;;;;;-128.00;-1.00;-1.00;106306;1259;1010028;-72
2023/07/28 00:36:59;;;;;;;9.30;2.30;;;;;;;-128.00;-1.00;-1.00;106307;1259;1010871;-70
2023/07/28 00:39:46;;;;;;;8.30;2.20;;;;;;;-128.00;-1.00;-1.00;106367;1259;1013198;-69
2023/07/28 00:42:33;;;;;;;6.90;2.00;;;;;;;-128.00;-1.00;-1.00;106308;1259;1011955;-68
2023/07/28 00:45:23;;;;;;;8.90;2.30;;;;;;;-128.00;-1.00;-1.00;106337;1259;1013034;-71
2023/07/28 00:48:15;;;;;;;6.90;2.50;;;;;;;-128.00;-1.00;-1.00;106310;1259;1009479;-68
2023/07/28 00:51:03;;;;;;;10.50;2.80;;;;;;;-128.00;-1.00;-1.00;106319;1259;1010365;-71
2023/07/28 00:53:52;;;;;;;7.10;2.70;;;;;;;-128.00;-1.00;-1.00;106280;1259;1013257;-71
2023/07/28 00:56:39;;;;;;;8.00;2.40;;;;;;;-128.00;-1.00;-1.00;106324;1259;1012209;-71
2023/07/28 00:59:27;;;;;;;7.20;2.20;;;;;;;-128.00;-1.00;-1.00;106374;1259;1013086;-71
2023/07/28 01:02:14;;;;;;;6.70;2.40;;;;;;;-128.00;-1.00;-1.00;106345;1259;1010059;-70
2023/07/28 01:05:01;;;;;;;7.70;2.60;;;;;;;-128.00;-1.00;-1.00;106290;1258;1011419;-69
2023/07/28 01:08:03;;;;;;;6.80;2.00;;;;;;;-128.00;-1.00;-1.00;106326;1258;1012693;-74
2023/07/28 01:10:50;;;;;;;7.50;2.40;;;;;;;-128.00;-1.00;-1.00;106335;1258;1012147;-71
2023/07/28 01:13:37;;;;;;;8.20;2.30;;;;;;;-128.00;-1.00;-1.00;106403;1258;1012855;-69
2023/07/28 01:16:24;;;;;;;9.50;2.30;;;;;;;-128.00;-1.00;-1.00;106453;1259;1010351;-72
2023/07/28 01:19:12;;;;;;;7.60;2.50;;;;;;;-128.00;-1.00;-1.00;106614;1253;1011119;-70
2023/07/28 01:22:44;;;;;;;10.10;2.40;;;;;;;-128.00;-1.00;-1.00;106622;1253;1012122;-71
2023/07/28 01:25:44;;;;;;;7.00;2.70;;;;;;;-128.00;-1.00;-1.00;106566;1253;1012301;-68
2023/07/28 01:28:37;;;;;;;7.90;2.40;;;;;;;-128.00;-1.00;-1.00;106827;1253;1013724;-71
2023/07/28 01:31:25;;;;;;;9.40;2.60;;;;;;;-128.00;-1.00;-1.00;106618;1253;1010864;-71
2023/07/28 01:34:12;;;;;;;7.50;2.70;;;;;;;-128.00;-1.00;-1.00;106420;1257;1010881;-71
2023/07/28 01:36:59;;;;;;;6.50;2.10;;;;;;;-128.00;-1.00;-1.00;106372;1257;1012681;-72
2023/07/28 01:39:45;;;;;;;6.90;2.50;;;;;;;-128.00;-1.00;-1.00;106487;1257;1013593;-71
2023/07/28 01:42:32;;;;;;;7.70;2.80;;;;;;;-128.00;-1.00;-1.00;106404;1257;1012741;-72
2023/07/28 01:45:21;;;;;;;7.00;2.70;;;;;;;-128.00;-1.00;-1.00;106346;1257;1010163;-72
2023/07/28 01:48:09;;;;;;;7.40;2.50;;;;;;;-128.00;-1.00;-1.00;106454;1257;1011026;-69
2023/07/28 01:50:57;;;;;;;7.10;2.40;;;;;;;-128.00;-1.00;-1.00;106391;1257;1013044;-68
2023/07/28 01:53:45;;;;;;;8.60;2.60;;;;;;;-128.00;-1.00;-1.00;106478;1261;1013020;-71
2023/07/28 01:56:31;;;;;;;7.10;2.50;;;;;;;-128.00;-1.00;-1.00;106479;1257;1013557;-70
2023/07/28 01:59:20;;;;;;;7.80;2.60;;;;;;;-128.00;-1.00;-1.00;106437;1257;1010520;-71
2023/07/28 02:02:07;;;;;;;8.70;2.60;;;;;;;-128.00;-1.00;-1.00;106437;1257;1011639;-70
2023/07/28 02:04:53;;;;;;;6.60;2.40;;;;;;;-128.00;-1.00;-1.00;106464;1253;1012768;-71
2023/07/28 02:07:40;;;;;;;7.70;2.40;;;;;;;-128.00;-1.00;-1.00;106600;1260;1012478;-69
2023/07/28 02:10:30;;;;;;;7.80;2.50;;;;;;;-128.00;-1.00;-1.00;106319;1258;1013345;-71
2023/07/28 02:13:16;;;;;;;6.70;2.30;;;;;;;-128.00;-1.00;-1.00;106268;1259;1009930;-71
2023/07/28 02:16:03;;;;;;;7.50;2.60;;;;;;;-128.00;-1.00;-1.00;106340;1259;1011000;-70
2023/07/28 02:18:50;;;;;;;7.50;2.60;;;;;;;-128.00;-1.00;-1.00;106229;1259;1013540;-68
2023/07/28 02:21:37;;;;;;;10.80;2.50;;;;;;;-128.00;-1.00;-1.00;106289;1259;1012507;-69
2023/07/28 02:24:25;;;;;;;7.50;2.60;;;;;;;-128.00;-1.00;-1.00;106350;1258;1013060;-70
2023/07/28 02:27:12;;;;;;;7.20;2.70;;;;;;;-128.00;-1.00;-1.00;106351;1259;1010077;-74
2023/07/28 02:29:59;;;;;;;6.80;2.50;;;;;;;-128.00;-1.00;-1.00;106371;1258;1010968;-69
2023/07/28 02:32:46;;;;;;;9.30;2.70;;;;;;;-128.00;-1.00;-1.00;106251;1264;1012452;-71
2023/07/28 02:35:33;;;;;;;8.50;2.70;;;;;;;-128.00;-1.00;-1.00;106274;1259;1013925;-69
2023/07/28 02:38:20;;;;;;;7.30;2.70;;;;;;;-128.00;-1.00;-1.00;106368;1258;1012645;-72
2023/07/28 02:41:08;;;;;;;8.00;2.50;;;;;;;-128.00;-1.00;-1.00;106499;1257;1009671;-71
2023/07/28 02:43:55;;;;;;;7.90;2.60;;;;;;;-128.00;-1.00;-1.00;106874;1253;1010831;-70
2023/07/28 02:46:54;;;;;;;8.00;2.70;;;;;;;-128.00;-1.00;-1.00;106832;1253;1012495;-70
2023/07/28 02:49:43;;;;;;;8.30;2.60;;;;;;;-128.00;-1.00;-1.00;106884;1254;1013022;-73
2023/07/28 02:52:34;;;;;;;8.40;3.00;;;;;;;-128.00;-1.00;-1.00;106643;1253;1012558;-69
2023/07/28 02:55:20;;;;;;;7.00;2.80;;;;;;;-128.00;-1.00;-1.00;106497;1253;1009259;-70
2023/07/28 02:58:07;;;;;;;8.70;2.90;;;;;;;-128.00;-1.00;-1.00;106555;1253;1010160;-70
2023/07/28 03:00:53;;;;;;;6.80;2.60;;;;;;;-128.00;-1.00;-1.00;106687;1253;1013299;-70
2023/07/28 03:03:47;;;;;;;8.50;2.70;;;;;;;-128.00;-1.00;-1.00;106658;1259;1011378;-71
2023/07/28 03:06:37;;;;;;;8.70;2.90;;;;;;;-128.00;-1.00;-1.00;106715;1253;1012995;-69
2023/07/28 03:09:24;;;;;;;9.00;2.90;;;;;;;-128.00;-1.00;-1.00;106650;1253;1010078;-70
2023/07/28 03:12:37;;;;;;;8.60;3.10;;;;;;;-128.00;-1.00;-1.00;106742;1253;1011537;-72
2023/07/28 03:15:25;;;;;;;9.60;3.10;;;;;;;-128.00;-1.00;-1.00;106496;1253;1012417;-69
2023/07/28 03:18:12;;;;;;;8.50;2.80;;;;;;;-128.00;-1.00;-1.00;106485;1253;1012500;-69
2023/07/28 03:20:59;;;;;;;6.90;2.70;;;;;;;-128.00;-1.00;-1.00;106569;1253;1013449;-70
2023/07/28 03:23:46;;;;;;;7.90;2.80;;;;;;;-128.00;-1.00;-1.00;106707;1253;1010887;-70
2023/07/28 03:26:34;;;;;;;8.40;3.30;;;;;;;-128.00;-1.00;-1.00;106691;1253;1011123;-69
2023/07/28 03:29:23;;;;;;;7.70;2.90;;;;;;;-128.00;-1.00;-1.00;106733;1253;1013111;-70
2023/07/28 03:32:10;;;;;;;7.70;2.70;;;;;;;-128.00;-1.00;-1.00;106536;1261;1012008;-71
2023/07/28 03:34:58;;;;;;;7.90;2.90;;;;;;;-128.00;-1.00;-1.00;106729;1253;1013400;-71
2023/07/28 03:37:49;;;;;;;8.20;3.00;;;;;;;-128.00;-1.00;-1.00;106625;1253;1010621;-72
2023/07/28 03:40:35;;;;;;;9.00;3.50;;;;;;;-128.00;-1.00;-1.00;106575;1253;1010555;-70
2023/07/28 03:43:22;;;;;;;8.00;3.00;;;;;;;-128.00;-1.00;-1.00;106505;1253;1013040;-69
2023/07/28 03:46:09;;;;;;;8.10;3.00;;;;;;;-128.00;-1.00;-1.00;106661;1253;1012440;-71
2023/07/28 03:48:57;;;;;;;8.50;3.20;;;;;;;-128.00;-1.00;-1.00;106633;1253;1012609;-71
2023/07/28 03:51:44;;;;;;;9.30;3.60;;;;;;;-128.00;-1.00;-1.00;106664;1253;1009546;-72
2023/07/28 03:54:31;;;;;;;7.70;3.20;;;;;;;-128.00;-1.00;-1.00;106886;1253;1010469;-70
2023/07/28 03:57:17;;;;;;;7.10;2.90;;;;;;;-128.00;-1.00;-1.00;106695;1253;1013125;-70
2023/07/28 04:00:06;;;;;;;8.40;2.90;;;;;;;-128.00;-1.00;-1.00;106674;1253;1012519;-71
2023/07/28 04:03:02;;;;;;;8.00;3.00;;;;;;;-128.00;-1.00;-1.00;106692;1253;1012835;-71
2023/07/28 04:05:49;;;;;;;8.70;3.20;;;;;;;-128.00;-1.00;-1.00;106716;1253;1009745;-71
2023/07/28 04:08:35;;;;;;;8.20;2.90;;;;;;;-128.00;-1.00;-1.00;106851;1253;1010936;-70
2023/07/28 04:11:24;;;;;;;10.10;3.50;;;;;;;-128.00;-1.00;-1.00;106538;1259;1012954;-71
2023/07/28 04:14:12;;;;;;;10.20;3.30;;;;;;;-128.00;-1.00;-1.00;106452;1254;1012809;-72
2023/07/28 04:16:58;;;;;;;8.90;3.40;;;;;;;-128.00;-1.00;-1.00;106564;1253;1013183;-68
2023/07/28 04:19:46;;;;;;;8.80;3.40;;;;;;;-128.00;-1.00;-1.00;106615;1253;1009783;-70
2023/07/28 04:22:33;;;;;;;7.90;3.20;;;;;;;-128.00;-1.00;-1.00;106646;1253;1010909;-68
2023/07/28 04:25:20;;;;;;;9.70;3.20;;;;;;;-128.00;-1.00;-1.00;106649;1253;1012343;-68
2023/07/28 04:28:07;;;;;;;9.90;3.50;;;;;;;-128.00;-1.00;-1.00;106967;1253;1013077;-67
2023/07/28 04:30:55;;;;;;;9.10;3.10;;;;;;;-128.00;-1.00;-1.00;106682;1253;1013272;-70
2023/07/28 04:34:06;;;;;;;11.40;3.30;;;;;;;-128.00;-1.00;-1.00;106632;1253;1009083;-72
2023/07/28 04:37:27;;;;;;;10.20;3.70;;;;;;;-128.00;-1.00;-1.00;106369;1257;1010175;-72
2023/07/28 04:40:19;;;;;;;9.20;3.50;;;;;;;-128.00;-1.00;-1.00;106181;1257;1012249;-71
2023/07/28 04:43:06;;;;;;;8.90;3.70;;;;;;;-128.00;-1.00;-1.00;106392;1262;1013485;-73
2023/07/28 04:45:55;;;;;;;8.90;4.00;;;;;;;-128.00;-1.00;-1.00;106252;1257;1012439;-72
2023/07/28 04:48:42;;;;;;;8.50;3.70;;;;;;;-128.00;-1.00;-1.00;106282;1257;1009882;-72
2023/07/28 04:51:50;;;;;;;8.40;3.50;;;;;;;-128.00;-1.00;-1.00;106347;1257;1010496;-68
2023/07/28 04:54:59;;;;;;;10.10;3.60;;;;;;;-128.00;-1.00;-1.00;106379;1257;1012363;-72
2023/07/28 04:57:46;;;;;;;10.70;3.70;;;;;;;-128.00;-1.00;-1.00;106364;1259;1012280;-70
2023/07/28 05:00:34;;;;;;;10.40;3.70;;;;;;;-128.00;-1.00;-1.00;106374;1257;1012966;-72
2023/07/28 05:03:22;;;;;;;10.70;3.70;;;;;;;-128.00;-1.00;-1.00;106658;1253;1009424;-72
2023/07/28 05:06:15;;;;;;;9.60;3.60;;;;;;;-128.00;-1.00;-1.00;106247;1258;1010901;-72
2023/07/28 05:09:03;;;;;;;9.90;3.60;;;;;;;-128.00;-1.00;-1.00;106354;1259;1012664;-74
2023/07/28 05:11:55;;;;;;;9.00;3.20;;;;;;;-128.00;-1.00;-1.00;106256;1258;1012319;-73
2023/07/28 05:14:43;;;;;;;8.80;3.70;;;;;;;-128.00;-1.00;-1.00;106297;1259;1012709;-74
2023/07/28 05:17:30;;;;;;;8.10;3.60;;;;;;;-128.00;-1.00;-1.00;106279;1259;1009509;-71
2023/07/28 05:20:31;;;;;;;8.70;3.50;;;;;;;-128.00;-1.00;-1.00;106293;1259;1011199;-74
2023/07/28 05:23:29;;;;;;;8.90;3.80;;;;;;;-128.00;-1.00;-1.00;106344;1258;1012323;-71
2023/07/28 05:26:15;;;;;;;8.40;3.50;;;;;;;-128.00;-1.00;-1.00;106421;1258;1011502;-72
2023/07/28 05:29:06;;;;;;;8.10;3.10;;;;;;;-128.00;-1.00;-1.00;106401;1259;1012437;-72
2023/07/28 05:31:54;;;;;;;10.60;3.70;;;;;;;-128.00;-1.00;-1.00;106291;1264;1009683;-72
2023/07/28 05:34:46;;;;;;;8.60;3.50;;;;;;;-128.00;-1.00;-1.00;106356;1258;1011798;-71
2023/07/28 05:37:32;;;;;;;9.80;3.60;;;;;;;-128.00;-1.00;-1.00;106561;1254;1013704;-72
2023/07/28 05:40:19;;;;;;;10.00;3.70;;;;;;;-128.00;-1.00;-1.00;106638;1254;1013036;-74
2023/07/28 05:43:06;;;;;;;9.60;3.50;;;;;;;-128.00;-1.00;-1.00;106633;1253;1012880;-72
2023/07/28 05:45:59;;;;;;;8.60;3.60;;;;;;;-128.00;-1.00;-1.00;106598;1253;1010257;-72
2023/07/28 05:48:47;;;;;;;9.20;3.80;;;;;;;-128.00;-1.00;-1.00;106465;1253;1010978;-72
2023/07/28 05:51:37;;;;;;;9.10;3.80;;;;;;;-128.00;-1.00;-1.00;106522;1253;1012776;-70
2023/07/28 05:54:25;;;;;;;9.90;3.90;;;;;;;-128.00;-1.00;-1.00;106665;1253;1012951;-71
2023/07/28 05:57:12;;;;;;;8.50;3.60;;;;;;;-128.00;-1.00;-1.00;106667;1253;1012200;-72
2023/07/28 06:00:00;;;;;;;10.10;4.60;;;;;;;-128.00;-1.00;-1.00;106688;1253;1010100;-73
2023/07/28 06:02:48;;;;;;;13.30;4.70;;;;;;;-128.00;-1.00;-1.00;106715;1253;1011486;-76
2023/07/28 06:05:59;;;;;;;15.10;4.10;;;;;;;-128.00;-1.00;-1.00;106667;1253;1013230;-73
2023/07/28 06:08:46;;;;;;;15.40;4.50;;;;;;;-128.00;-1.00;-1.00;106076;1264;1012973;-72
2023/07/28 06:11:36;;;;;;;12.00;4.60;;;;;;;-128.00;-1.00;-1.00;106071;1263;1012632;-77
2023/07/28 06:14:23;;;;;;;12.20;4.40;;;;;;;-128.00;-1.00;-1.00;106069;1264;1010102;-78
2023/07/28 06:17:12;;;;;;;11.60;5.60;;;;;;;-128.00;-1.00;-1.00;106148;1262;1011059;-77
2023/07/28 06:20:02;;;;;;;12.00;4.30;;;;;;;-128.00;-1.00;-1.00;106187;1262;1012582;-77
2023/07/28 06:22:50;;;;;;;11.90;5.20;;;;;;;-128.00;-1.00;-1.00;106159;1264;1012785;-76
2023/07/28 06:25:43;;;;;;;9.90;3.90;;;;;;;-128.00;-1.00;-1.00;106155;1263;1013586;-75
2023/07/28 06:28:32;;;;;;;10.30;4.00;;;;;;;-128.00;-1.00;-1.00;105874;1266;1009231;-77
2023/07/28 06:31:22;;;;;;;10.60;4.20;;;;;;;-128.00;-1.00;-1.00;105854;1266;1011823;-71
2023/07/28 06:34:12;;;;;;;10.90;4.00;;;;;;;-128.00;-1.00;-1.00;105857;1267;1013221;-71
2023/07/28 06:36:59;;;;;;;11.30;3.20;;;;;;;-128.00;-1.00;-1.00;105899;1267;1012792;-70
2023/07/28 06:39:46;;;;;;;10.10;3.90;;;;;;;-128.00;-1.00;-1.00;103621;1263;3288239;-71
2023/07/28 06:42:35;;;;;;;9.00;3.70;;;;;;;-128.00;-1.00;-1.00;106334;1259;1010439;-70
2023/07/28 06:45:22;;;;;;;11.60;3.50;;;;;;;-128.00;-1.00;-1.00;106149;1259;1013269;-71
2023/07/28 06:48:09;;;;;;;10.30;3.70;;;;;;;-128.00;-1.00;-1.00;106296;1258;1012683;-70
2023/07/28 06:50:55;;;;;;;10.10;3.50;;;;;;;-128.00;-1.00;-1.00;106318;1259;1013083;-69
2023/07/28 06:53:42;;;;;;;10.20;3.80;;;;;;;-128.00;-1.00;-1.00;106352;1259;1010003;-70
2023/07/28 06:56:35;;;;;;;10.10;3.70;;;;;;;-128.00;-1.00;-1.00;106325;1258;1011020;-69
2023/07/28 06:59:28;;;;;;;10.30;3.40;;;;;;;-128.00;-1.00;-1.00;106370;1261;1012053;-75
2023/07/28 07:02:15;;;;;;;10.60;4.20;;;;;;;-128.00;-1.00;-1.00;106233;1258;1012340;-68
2023/07/28 07:05:03;;;;;;;9.30;3.80;;;;;;;-128.00;-1.00;-1.00;106424;1259;1012674;-71
2023/07/28 07:07:52;;;;;;;9.00;3.70;;;;;;;-128.00;-1.00;-1.00;106264;1260;1010036;-69
2023/07/28 07:10:39;;;;;;;8.20;3.50;;;;;;;-128.00;-1.00;-1.00;106351;1258;1010115;-70
2023/07/28 07:13:26;;;;;;;8.80;3.60;;;;;;;-128.00;-1.00;-1.00;106538;1252;1013580;-73
2023/07/28 07:16:17;;;;;;;10.60;3.40;;;;;;;-128.00;-1.00;-1.00;106556;1253;1012784;-71
2023/07/28 07:19:10;;;;;;;8.50;3.30;;;;;;;-128.00;-1.00;-1.00;106653;1254;1012575;-70
2023/07/28 07:21:56;;;;;;;8.70;3.50;;;;;;;-128.00;-1.00;-1.00;106708;1254;1010398;-74
2023/07/28 07:24:44;;;;;;;8.50;3.60;;;;;;;-128.00;-1.00;-1.00;106916;1253;1010146;-73
2023/07/28 07:27:30;;;;;;;8.10;3.40;;;;;;;-128.00;-1.00;-1.00;106703;1254;1012053;-73
2023/07/28 07:30:17;;;;;;;9.00;3.20;;;;;;;-128.00;-1.00;-1.00;106513;1254;1013135;-74
2023/07/28 07:33:04;;;;;;;8.70;3.60;;;;;;;-128.00;-1.00;-1.00;106576;1254;1012903;-72
2023/07/28 07:35:51;;;;;;;10.00;3.90;;;;;;;-128.00;-1.00;-1.00;106710;1254;1008784;-71
2023/07/28 07:38:38;;;;;;;9.10;3.30;;;;;;;-128.00;-1.00;-1.00;106696;1253;1011161;-71
2023/07/28 07:41:24;;;;;;;12.50;3.40;;;;;;;-128.00;-1.00;-1.00;106541;1254;1013902;-71
2023/07/28 07:44:12;;;;;;;12.30;3.70;;;;;;;-128.00;-1.00;-1.00;106572;1257;1012379;-70
2023/07/28 07:47:12;;;;;;;9.50;3.60;;;;;;;-128.00;-1.00;-1.00;106400;1258;1012323;-72
2023/07/28 07:49:58;;;;;;;9.80;3.70;;;;;;;-128.00;-1.00;-1.00;106422;1257;1009081;-70
2023/07/28 07:52:44;;;;;;;15.90;9.30;;;;;;;-128.00;-1.00;-1.00;106379;1257;1010866;-70
2023/07/28 07:55:33;;;;;;;10.00;3.90;;;;;;;-128.00;-1.00;-1.00;106365;1257;1013121;-70
2023/07/28 07:58:19;;;;;;;10.40;3.70;;;;;;;-128.00;-1.00;-1.00;106234;1266;1013182;-69
2023/07/28 08:01:07;;;;;;;8.10;3.20;;;;;;;-128.00;-1.00;-1.00;106367;1258;1013372;-70
2023/07/28 08:03:54;;;;;;;17.20;4.10;;;;;;;-128.00;-1.00;-1.00;106316;1257;1009143;-70
2023/07/28 08:06:40;;;;;;;19.20;5.40;;;;;;;-128.00;-1.00;-1.00;106320;1257;1011671;-72
2023/07/28 08:09:27;;;;;;;11.20;3.90;;;;;;;-128.00;-1.00;-1.00;106412;1257;1012905;-71
2023/07/28 08:12:15;;;;;;;8.50;3.20;;;;;;;-128.00;-1.00;-1.00;106423;1257;1012319;-72
2023/07/28 08:15:02;;;;;;;10.90;3.40;;;;;;;-128.00;-1.00;-1.00;106366;1258;1013244;-71
2023/07/28 08:17:49;;;;;;;10.30;3.60;;;;;;;-128.00;-1.00;-1.00;106569;1254;1009674;-70
2023/07/28 08:20:35;;;;;;;8.40;3.30;;;;;;;-128.00;-1.00;-1.00;106860;1253;1010714;-72
2023/07/28 08:23:22;;;;;;;8.90;3.50;;;;;;;-128.00;-1.00;-1.00;106873;1254;1012529;-70
2023/07/28 08:26:10;;;;;;;8.50;3.60;;;;;;;-128.00;-1.00;-1.00;106399;1259;1012332;-73
2023/07/28 08:28:57;;;;;;;8.70;3.60;;;;;;;-128.00;-1.00;-1.00;106103;1258;1012579;-72
2023/07/28 08:31:44;;;;;;;10.30;4.30;;;;;;;-128.00;-1.00;-1.00;106325;1259;1009890;-71
2023/07/28 08:34:30;;;;;;;12.00;4.20;;;;;;;-128.00;-1.00;-1.00;106266;1260;1011964;-71
2023/07/28 08:37:17;;;;;;;9.70;3.80;;;;;;;-128.00;-1.00;-1.00;106320;1258;1012908;-72
2023/07/28 08:40:05;;;;;;;11.50;3.90;;;;;;;-128.00;-1.00;-1.00;106333;1263;1012859;-71
2023/07/28 08:42:51;;;;;;;10.70;3.80;;;;;;;-128.00;-1.00;-1.00;106336;1259;1013159;-72
2023/07/28 08:45:38;;;;;;;15.80;4.30;;;;;;;-128.00;-1.00;-1.00;106321;1261;1010074;-70
2023/07/28 08:48:24;;;;;;;17.20;4.80;;;;;;;-128.00;-1.00;-1.00;106344;1259;1010512;-71
2023/07/28 08:51:13;;;;;;;16.40;5.30;;;;;;;-128.00;-1.00;-1.00;106442;1261;1013574;-71
2023/07/28 08:54:00;;;;;;;14.60;5.20;;;;;;;-128.00;-1.00;-1.00;106218;1260;1013730;-73
2023/07/28 08:56:48;;;;;;;18.40;5.40;;;;;;;-128.00;-1.00;-1.00;106460;1253;1012553;-72
2023/07/28 08:59:38;;;;;;;18.30;5.50;;;;;;;-128.00;-1.00;-1.00;106739;1253;1010111;-73
2023/07/28 09:02:25;;;;;;;17.10;5.50;;;;;;;-128.00;-1.00;-1.00;106787;1253;1010881;-72
2023/07/28 09:05:20;;;;;;;20.10;6.00;;;;;;;-128.00;-1.00;-1.00;106718;1253;1012260;-72
2023/07/28 09:08:08;;;;;;;17.10;5.40;;;;;;;-128.00;-1.00;-1.00;106636;1258;1012355;-73
2023/07/28 09:11:02;;;;;;;14.00;5.30;;;;;;;-128.00;-1.00;-1.00;106571;1254;1012795;-71
2023/07/28 09:13:52;;;;;;;9.40;3.70;;;;;;;-128.00;-1.00;-1.00;106559;1254;1010424;-71
2023/07/28 09:16:38;;;;;;;8.30;3.70;;;;;;;-128.00;-1.00;-1.00;106884;1254;1011133;-71
2023/07/28 09:19:24;;;;;;;7.60;3.30;;;;;;;-128.00;-1.00;-1.00;106698;1254;1012696;-70
2023/07/28 09:22:13;;;;;;;9.40;3.90;;;;;;;-128.00;-1.00;-1.00;106473;1264;1012457;-70
2023/07/28 09:25:12;;;;;;;9.90;3.60;;;;;;;-128.00;-1.00;-1.00;106843;1254;1012147;-71
2023/07/28 09:27:59;;;;;;;11.40;3.80;;;;;;;-128.00;-1.00;-1.00;106531;1253;1009936;-71
2023/07/28 09:30:49;;;;;;;8.90;3.80;;;;;;;-128.00;-1.00;-1.00;106525;1254;1010916;-71
2023/07/28 09:33:42;;;;;;;9.90;3.90;;;;;;;-128.00;-1.00;-1.00;106518;1252;1012527;-71
2023/07/28 09:36:29;;;;;;;11.30;3.70;;;;;;;-128.00;-1.00;-1.00;106702;1252;1012903;-70
2023/07/28 09:39:18;;;;;;;8.00;2.90;;;;;;;-128.00;-1.00;-1.00;106572;1253;1012707;-74
2023/07/28 09:42:09;;;;;;;6.90;3.20;;;;;;;-128.00;-1.00;-1.00;106732;1253;1010426;-72
2023/07/28 09:44:55;;;;;;;9.20;3.80;;;;;;;-128.00;-1.00;-1.00;106830;1254;1011175;-71
2023/07/28 09:47:46;;;;;;;10.80;3.80;;;;;;;-128.00;-1.00;-1.00;106599;1253;1013250;-70
2023/07/28 09:50:36;;;;;;;10.00;3.30;;;;;;;-128.00;-1.00;-1.00;106649;1253;1012925;-71
2023/07/28 09:53:23;;;;;;;7.70;3.40;;;;;;;-128.00;-1.00;-1.00;106582;1253;1012826;-69
2023/07/28 09:56:13;;;;;;;9.70;3.60;;;;;;;-128.00;-1.00;-1.00;106557;1253;1009660;-71
2023/07/28 09:59:10;;;;;;;10.00;3.90;;;;;;;-128.00;-1.00;-1.00;106551;1253;1010629;-70
2023/07/28 10:02:00;;;;;;;9.10;3.80;;;;;;;-128.00;-1.00;-1.00;106655;1254;1012799;-71
2023/07/28 10:04:47;;;;;;;10.60;3.80;;;;;;;-128.00;-1.00;-1.00;106475;1254;1012097;-69
2023/07/28 10:07:36;;;;;;;12.20;3.80;;;;;;;-128.00;-1.00;-1.00;106737;1254;1012761;-71
2023/07/28 10:10:22;;;;;;;8.40;3.90;;;;;;;-128.00;-1.00;-1.00;106537;1253;1010567;-71
2023/07/28 10:13:20;;;;;;;10.10;3.60;;;;;;;-128.00;-1.00;-1.00;106613;1254;1011348;-72
2023/07/28 10:16:08;;;;;;;10.80;4.00;;;;;;;-128.00;-1.00;-1.00;106584;1253;1012484;-71
2023/07/28 10:18:55;;;;;;;8.50;3.60;;;;;;;-128.00;-1.00;-1.00;106719;1254;1012794;-71
2023/07/28 10:21:42;;;;;;;10.40;3.60;;;;;;;-128.00;-1.00;-1.00;106642;1253;1013016;-73
2023/07/28 10:25:00;;;;;;;9.80;3.30;;;;;;;-128.00;-1.00;-1.00;106592;1253;1010666;-72
2023/07/28 10:27:47;;;;;;;8.60;3.60;;;;;;;-128.00;-1.00;-1.00;106815;1253;1011329;-73
2023/07/28 10:30:50;;;;;;;9.30;3.60;;;;;;;-128.00;-1.00;-1.00;106774;1253;1012907;-71
2023/07/28 10:33:46;;;;;;;8.40;3.80;;;;;;;-128.00;-1.00;-1.00;106619;1257;1012351;-71
2023/07/28 10:36:37;;;;;;;9.60;3.80;;;;;;;-128.00;-1.00;-1.00;106585;1253;1012798;-71
2023/07/28 10:39:25;;;;;;;9.60;4.40;;;;;;;-128.00;-1.00;-1.00;106536;1254;1009914;-70
2023/07/28 10:42:12;;;;;;;9.00;3.70;;;;;;;-128.00;-1.00;-1.00;106782;1252;1011531;-71
2023/07/28 10:44:59;;;;;;;11.30;4.30;;;;;;;-128.00;-1.00;-1.00;106727;1253;1013216;-70
2023/07/28 10:47:47;;;;;;;10.10;3.50;;;;;;;-128.00;-1.00;-1.00;106691;1253;1011860;-71
2023/07/28 10:50:34;;;;;;;10.50;3.80;;;;;;;-128.00;-1.00;-1.00;106549;1253;1012415;-72
2023/07/28 10:53:23;;;;;;;9.30;4.20;;;;;;;-128.00;-1.00;-1.00;106682;1253;1010378;-73
2023/07/28 10:56:12;;;;;;;10.60;3.70;;;;;;;-128.00;-1.00;-1.00;106684;1252;1010927;-71
2023/07/28 10:59:00;;;;;;;9.40;4.00;;;;;;;-128.00;-1.00;-1.00;106777;1253;1013342;-71
2023/07/28 11:01:47;;;;;;;10.40;3.80;;;;;;;-128.00;-1.00;-1.00;106687;1253;1012882;-70
2023/07/28 11:04:34;;;;;;;11.60;3.90;;;;;;;-128.00;-1.00;-1.00;106804;1253;1013469;-72
2023/07/28 11:07:22;;;;;;;10.80;3.90;;;;;;;-128.00;-1.00;-1.00;106498;1254;1009431;-71
2023/07/28 11:10:13;;;;;;;10.40;4.00;;;;;;;-128.00;-1.00;-1.00;106384;1254;1011016;-71
2023/07/28 11:13:03;;;;;;;9.90;3.80;;;;;;;-128.00;-1.00;-1.00;106538;1254;1012140;-74
2023/07/28 11:16:21;;;;;;;10.20;3.90;;;;;;;-128.00;-1.00;-1.00;106301;1258;1012946;-74
2023/07/28 11:19:11;;;;;;;10.20;3.50;;;;;;;-128.00;-1.00;-1.00;106288;1258;1012622;-72
2023/07/28 11:21:59;;;;;;;9.90;3.80;;;;;;;-128.00;-1.00;-1.00;106298;1259;1009987;-72
2023/07/28 11:24:51;;;;;;;10.30;4.30;;;;;;;-128.00;-1.00;-1.00;106417;1258;1010280;-69
2023/07/28 11:27:40;;;;;;;9.60;3.70;;;;;;;-128.00;-1.00;-1.00;106259;1259;1013089;-71
2023/07/28 11:30:29;;;;;;;11.50;4.20;;;;;;;-128.00;-1.00;-1.00;106306;1258;1013007;-71
2023/07/28 11:33:17;;;;;;;10.50;4.40;;;;;;;-128.00;-1.00;-1.00;106407;1258;1013085;-69
2023/07/28 11:36:04;;;;;;;14.30;4.60;;;;;;;-128.00;-1.00;-1.00;106281;1258;1009425;-70
2023/07/28 11:38:53;;;;;;;11.70;4.50;;;;;;;-128.00;-1.00;-1.00;106321;1258;1011382;-70
2023/07/28 11:41:41;;;;;;;12.40;5.10;;;;;;;-128.00;-1.00;-1.00;106386;1258;1012103;-71
2023/07/28 11:44:28;;;;;;;9.50;4.30;;;;;;;-128.00;-1.00;-1.00;106349;1259;1012301;-71
2023/07/28 11:47:18;;;;;;;10.00;4.60;;;;;;;-128.00;-1.00;-1.00;106631;1253;1012422;-70
2023/07/28 11:50:05;;;;;;;10.40;4.30;;;;;;;-128.00;-1.00;-1.00;106577;1253;1010368;-70
2023/07/28 11:52:52;;;;;;;9.00;4.40;;;;;;;-128.00;-1.00;-1.00;106526;1254;1010421;-70
2023/07/28 11:55:39;;;;;;;9.00;4.20;;;;;;;-128.00;-1.00;-1.00;106562;1253;1012526;-71
2023/07/28 11:58:26;;;;;;;9.40;4.40;;;;;;;-128.00;-1.00;-1.00;106684;1257;1012292;-70
2023/07/28 12:01:13;;;;;;;9.10;4.50;;;;;;;-128.00;-1.00;-1.00;106714;1254;1012122;-72
2023/07/28 12:04:19;;;;;;;10.80;4.60;;;;;;;-128.00;-1.00;-1.00;106582;1253;1009830;-74
2023/07/28 12:07:18;;;;;;;10.10;4.20;;;;;;;-128.00;-1.00;-1.00;106683;1253;1010872;-71
2023/07/28 12:10:09;;;;;;;12.00;4.70;;;;;;;-128.00;-1.00;-1.00;106640;1253;1011794;-73
2023/07/28 12:13:26;;;;;;;9.70;4.80;;;;;;;-128.00;-1.00;-1.00;106647;1257;1011890;-73
2023/07/28 12:16:41;;;;;;;11.30;4.20;;;;;;;-128.00;-1.00;-1.00;106683;1253;1013127;-71
2023/07/28 12:19:32;;;;;;;9.90;4.40;;;;;;;-128.00;-1.00;-1.00;106696;1253;1009047;-72
2023/07/28 12:22:19;;;;;;;10.60;4.30;;;;;;;-128.00;-1.00;-1.00;106657;1253;1010833;-70
2023/07/28 12:25:06;;;;;;;8.00;3.70;;;;;;;-128.00;-1.00;-1.00;106732;1253;1013737;-70
2023/07/28 12:27:54;;;;;;;10.00;4.20;;;;;;;-128.00;-1.00;-1.00;106569;1253;1012589;-72
2023/07/28 12:30:41;;;;;;;9.90;4.30;;;;;;;-128.00;-1.00;-1.00;106714;1253;1013259;-71
2023/07/28 12:33:30;;;;;;;9.00;4.10;;;;;;;-128.00;-1.00;-1.00;106798;1253;1009595;-72
2023/07/28 12:36:20;;;;;;;9.50;4.30;;;;;;;-128.00;-1.00;-1.00;106824;1253;1011098;-70
2023/07/28 12:39:09;;;;;;;8.50;4.50;;;;;;;-128.00;-1.00;-1.00;106586;1253;1013054;-70
2023/07/28 12:41:59;;;;;;;9.80;4.20;;;;;;;-128.00;-1.00;-1.00;106672;1253;1011942;-73
2023/07/28 12:44:50;;;;;;;10.20;4.60;;;;;;;-128.00;-1.00;-1.00;106852;1253;1012774;-69
2023/07/28 12:47:39;;;;;;;12.40;4.60;;;;;;;-128.00;-1.00;-1.00;106755;1253;1010128;-73
2023/07/28 12:50:26;;;;;;;9.00;4.40;;;;;;;-128.00;-1.00;-1.00;106818;1253;1010989;-68
2023/07/28 12:53:14;;;;;;;9.10;4.30;;;;;;;-128.00;-1.00;-1.00;106385;1259;1012546;-69
2023/07/28 12:56:08;;;;;;;9.60;4.00;;;;;;;-128.00;-1.00;-1.00;106298;1258;1012807;-70